Time;durP1;ratioP1;P1;durP2;ratioP2;P2;SDS_P1;SDS_P2;PMS_P1;PMS_P2;Temp;Humidity;BMP_temperature;BMP_pressure;BME280_temperature;BME280_humidity;BME280_pressure;Samples;Min_cycle;Max_cycle;Signal;HPM_P1;HPM_P2
2023/04/21 00:03:09;;;;;;;;;;;;;;;5.55;100.00;101253.34;10398262;28;19953;-76
2023/04/21 00:08:10;;;;;;;;;;;;;;;5.53;100.00;101245.44;10384638;28;19927;-76
2023/04/21 00:13:10;;;;;;;;;;;;;;;5.60;100.00;101233.81;10395942;28;20007;-77
2023/04/21 00:18:12;;;;;;;;;;;;;;;5.62;100.00;101242.63;10359554;28;19925;-77
2023/04/21 00:23:12;;;;;;;;;;;;;;;5.65;100.00;101248.06;10372718;28;19925;-77
2023/04/21 00:28:12;;;;;;;;;;;;;;;5.62;100.00;101246.91;10385297;28;19920;-78
2023/04/21 00:33:13;;;;;;;;;;;;;;;5.64;100.00;101246.25;10385437;28;20265;-77
2023/04/21 00:38:13;;;;;;;;;;;;;;;5.66;100.00;101234.28;10380681;28;19929;-77
2023/04/21 00:43:13;;;;;;;;;;;;;;;5.67;100.00;101220.50;10377882;28;19925;-77
2023/04/21 00:48:14;;;;;;;;;;;;;;;5.69;100.00;101211.13;10407206;28;19921;-76
2023/04/21 00:53:14;;;;;;;;;;;;;;;5.71;100.00;101206.03;10375108;28;19933;-77
2023/04/21 00:58:15;;;;;;;;;;;;;;;5.75;100.00;101204.56;10405580;28;20004;-77
2023/04/21 01:03:15;;;;;;;;;;;;;;;5.68;100.00;101192.81;10357556;28;20287;-77
2023/04/21 01:08:15;;;;;;;;;;;;;;;5.69;100.00;101195.53;10403291;28;19921;-77
2023/04/21 01:13:18;;;;;;;;;;;;;;;5.67;100.00;101178.03;10373197;28;19928;-77
2023/04/21 01:18:18;;;;;;;;;;;;;;;5.68;100.00;101183.34;10397561;28;19944;-77
2023/04/21 01:23:19;;;;;;;;;;;;;;;5.61;100.00;101185.38;10373196;28;19928;-77
2023/04/21 01:28:23;;;;;;;;;;;;;;;5.51;100.00;101187.28;10402421;28;19928;-77
2023/04/21 01:33:24;;;;;;;;;;;;;;;5.55;100.00;101183.25;10373690;28;19947;-77
2023/04/21 01:38:24;;;;;;;;;;;;;;;5.54;100.00;101171.06;10401729;28;19931;-77
2023/04/21 01:43:24;;;;;;;;;;;;;;;5.56;100.00;101175.56;10371643;28;19921;-77
2023/04/21 01:48:25;;;;;;;;;;;;;;;5.59;100.00;101165.38;10399485;28;20657;-76
2023/04/21 01:53:25;;;;;;;;;;;;;;;5.58;100.00;101170.50;10396327;28;20245;-76
2023/04/21 01:58:26;;;;;;;;;;;;;;;5.61;100.00;101164.59;10362147;28;19925;-76
2023/04/21 02:03:26;;;;;;;;;;;;;;;5.59;100.00;101160.19;10365804;28;19922;-76
2023/04/21 02:08:26;;;;;;;;;;;;;;;5.62;100.00;101161.22;10403400;28;19920;-76
2023/04/21 02:13:27;;;;;;;;;;;;;;;5.58;100.00;101160.09;10401278;28;19921;-77
2023/04/21 02:18:29;;;;;;;;;;;;;;;5.56;100.00;101162.56;10400915;28;19928;-77
2023/04/21 02:23:29;;;;;;;;;;;;;;;5.58;100.00;101160.09;10389484;28;19921;-77
2023/04/21 02:28:30;;;;;;;;;;;;;;;5.56;100.00;101157.38;10400063;28;20319;-77
2023/04/21 02:33:30;;;;;;;;;;;;;;;5.60;100.00;101155.91;10366255;28;19925;-76
2023/04/21 02:38:31;;;;;;;;;;;;;;;5.63;100.00;101157.81;10399844;28;19925;-76
2023/04/21 02:43:31;;;;;;;;;;;;;;;5.62;100.00;101146.53;10397278;28;19928;-76
2023/04/21 02:48:32;;;;;;;;;;;;;;;5.64;100.00;101139.78;10401962;28;20281;-76
2023/04/21 02:53:32;;;;;;;;;;;;;;;5.57;100.00;101133.22;10394314;28;20016;-76
2023/04/21 02:58:32;;;;;;;;;;;;;;;5.47;100.00;101138.53;10401658;28;20808;-76
2023/04/21 03:03:32;;;;;;;;;;;;;;;5.39;100.00;101137.06;10384133;28;19928;-76
2023/04/21 03:08:33;;;;;;;;;;;;;;;5.31;100.00;101141.72;10398676;28;19917;-77
2023/04/21 03:13:33;;;;;;;;;;;;;;;5.23;100.00;101146.34;10380522;28;19971;-77
2023/04/21 03:18:34;;;;;;;;;;;;;;;5.20;100.00;101143.50;10401153;28;19921;-76
2023/04/21 03:23:35;;;;;;;;;;;;;;;5.01;100.00;101130.88;10362384;28;19927;-76
2023/04/21 03:28:35;;;;;;;;;;;;;;;4.85;100.00;101134.94;10364901;28;20262;-77
2023/04/21 03:33:35;;;;;;;;;;;;;;;4.87;100.00;101135.03;10359051;28;19983;-77
2023/04/21 03:38:36;;;;;;;;;;;;;;;4.94;100.00;101139.88;10401326;28;19921;-77
2023/04/21 03:43:36;;;;;;;;;;;;;;;5.01;100.00;101146.44;10393418;28;19929;-77
2023/04/21 03:48:36;;;;;;;;;;;;;;;4.97;100.00;101140.13;10375438;28;20258;-77
2023/04/21 03:53:37;;;;;;;;;;;;;;;4.85;100.00;101132.34;10361182;28;20332;-77
2023/04/21 03:58:37;;;;;;;;;;;;;;;4.59;100.00;101130.34;10374841;28;19926;-76
2023/04/21 04:03:37;;;;;;;;;;;;;;;4.46;100.00;101135.38;10380317;28;20292;-77
2023/04/21 04:08:38;;;;;;;;;;;;;;;4.25;100.00;101120.91;10407364;28;19971;-77
2023/04/21 04:13:38;;;;;;;;;;;;;;;4.03;100.00;101125.22;10384525;28;19928;-77
2023/04/21 04:18:38;;;;;;;;;;;;;;;3.81;100.00;101133.88;10393677;28;20375;-77
2023/04/21 04:23:39;;;;;;;;;;;;;;;3.78;100.00;101131.94;10388998;28;19921;-77
2023/04/21 04:28:40;;;;;;;;;;;;;;;3.82;100.00;101140.88;10390740;28;20885;-77
2023/04/21 04:33:41;;;;;;;;;;;;;;;3.88;100.00;101130.09;10379308;28;19921;-77
2023/04/21 04:38:41;;;;;;;;;;;;;;;3.96;100.00;101127.31;10389390;28;20276;-77
2023/04/21 04:43:42;;;;;;;;;;;;;;;3.99;100.00;101130.94;10344207;28;19921;-77
2023/04/21 04:48:43;;;;;;;;;;;;;;;3.94;100.00;101127.97;10379077;28;19929;-76
2023/04/21 04:53:43;;;;;;;;;;;;;;;3.87;100.00;101129.19;10376810;28;20345;-75
2023/04/21 04:58:45;;;;;;;;;;;;;;;3.95;100.00;101132.38;10403362;28;19922;-77
2023/04/21 05:03:45;;;;;;;;;;;;;;;4.14;100.00;101139.00;10398751;28;19921;-75
2023/04/21 05:08:46;;;;;;;;;;;;;;;4.27;100.00;101136.56;10400116;28;19921;-77
2023/04/21 05:13:46;;;;;;;;;;;;;;;4.44;100.00;101135.28;10367988;28;19975;-75
2023/04/21 05:18:49;;;;;;;;;;;;;;;4.53;100.00;101136.00;10380961;28;19944;-75
2023/04/21 05:23:50;;;;;;;;;;;;;;;4.53;100.00;101138.59;10368977;28;19928;-77
2023/04/21 05:28:50;;;;;;;;;;;;;;;4.57;100.00;101152.66;10365577;28;19928;-75
2023/04/21 05:33:50;;;;;;;;;;;;;;;4.67;100.00;101143.91;10367094;28;19925;-76
2023/04/21 05:38:51;;;;;;;;;;;;;;;4.69;100.00;101145.81;10371634;28;19925;-75
2023/04/21 05:43:51;;;;;;;;;;;;;;;4.84;100.00;101142.59;10359831;28;19933;-75
2023/04/21 05:48:52;;;;;;;;;;;;;;;4.85;100.00;101134.94;10380595;28;20377;-76
2023/04/21 05:53:52;;;;;;;;;;;;;;;5.29;100.00;101139.00;10382230;28;19921;-76
2023/04/21 05:58:52;;;;;;;;;;;;;;;6.64;100.00;101141.47;10384751;28;19933;-76
2023/04/21 06:03:53;;;;;;;;;;;;;;;8.06;100.00;101137.63;10367209;28;20265;-75
2023/04/21 06:08:53;;;;;;;;;;;;;;;9.29;100.00;101134.41;10376954;28;19936;-76
2023/04/21 06:13:57;;;;;;;;;;;;;;;10.38;100.00;101122.00;10361902;28;19936;-75
2023/04/21 06:18:57;;;;;;;;;;;;;;;11.43;100.00;101119.44;10366087;28;20023;-77
2023/04/21 06:23:58;;;;;;;;;;;;;;;11.28;100.00;101080.31;10379231;28;19968;-77
2023/04/21 06:28:58;;;;;;;;;;;;;;;11.69;100.00;101088.31;10379187;28;20433;-77
2023/04/21 06:33:59;;;;;;;;;;;;;;;12.41;100.00;101102.03;10393953;28;20293;-77
2023/04/21 06:38:59;;;;;;;;;;;;;;;12.53;100.00;101112.19;10377411;28;20277;-77
2023/04/21 06:43:59;;;;;;;;;;;;;;;12.75;100.00;101114.00;10385874;28;19928;-77
2023/04/21 06:49:00;;;;;;;;;;;;;;;13.51;100.00;101115.38;10378731;28;19921;-76
2023/04/21 06:54:00;;;;;;;;;;;;;;;13.69;100.00;101114.31;10400002;28;20276;-77
2023/04/21 06:59:00;;;;;;;;;;;;;;;14.65;100.00;101104.66;10401077;28;20003;-77
2023/04/21 07:04:01;;;;;;;;;;;;;;;14.62;100.00;101112.44;10381230;28;19943;-77
2023/04/21 07:09:01;;;;;;;;;;;;;;;15.19;100.00;101112.63;10401998;28;19923;-77
2023/04/21 07:14:01;;;;;;;;;;;;;;;15.42;100.00;101097.53;10375487;28;19921;-77
2023/04/21 07:19:02;;;;;;;;;;;;;;;15.11;100.00;101105.34;10370695;28;19921;-77
2023/04/21 07:24:04;;;;;;;;;;;;;;;15.78;100.00;101098.63;10372887;28;19984;-76
2023/04/21 07:29:05;;;;;;;;;;;;;;;15.65;100.00;101105.25;10363221;28;20618;-75
2023/04/21 07:34:05;;;;;;;;;;;;;;;16.06;99.83;101096.81;10373740;28;19925;-75
2023/04/21 07:39:05;;;;;;;;;;;;;;;16.14;97.20;101092.66;10354460;28;19922;-75
2023/04/21 07:44:06;;;;;;;;;;;;;;;16.31;97.84;101087.84;10397690;28;19921;-75
2023/04/21 07:49:06;;;;;;;;;;;;;;;15.90;96.97;101087.53;10367973;28;19937;-74
2023/04/21 07:54:06;;;;;;;;;;;;;;;17.03;94.19;101091.50;10368518;28;19921;-74
2023/04/21 07:59:07;;;;;;;;;;;;;;;18.20;90.77;101096.75;10377255;28;19921;-76
2023/04/21 08:04:08;;;;;;;;;;;;;;;18.70;80.64;101092.38;10371127;28;19928;-75
2023/04/21 08:09:08;;;;;;;;;;;;;;;18.09;81.72;101093.00;10372097;28;20412;-76
2023/04/21 08:14:10;;;;;;;;;;;;;;;18.37;76.98;101088.25;10365618;28;20336;-75
2023/04/21 08:19:11;;;;;;;;;;;;;;;18.30;75.79;101080.19;10382135;28;19921;-75
2023/04/21 08:24:11;;;;;;;;;;;;;;;17.72;80.62;101082.47;10376145;28;19956;-75
2023/04/21 08:29:12;;;;;;;;;;;;;;;17.47;76.78;101084.56;10392936;28;19928;-75
2023/04/21 08:34:13;;;;;;;;;;;;;;;16.32;82.65;101089.63;10385000;28;19956;-74
2023/04/21 08:39:13;;;;;;;;;;;;;;;16.80;86.09;101084.69;10406172;28;20004;-74
2023/04/21 08:44:14;;;;;;;;;;;;;;;18.37;80.27;101075.88;10388635;28;19929;-74
2023/04/21 08:49:15;;;;;;;;;;;;;;;18.48;75.90;101071.66;10384654;28;20364;-75
2023/04/21 08:54:16;;;;;;;;;;;;;;;18.41;72.52;101067.13;10362571;28;20408;-75
2023/04/21 08:59:16;;;;;;;;;;;;;;;18.18;74.95;101067.56;10349843;28;19929;-76
2023/04/21 09:04:17;;;;;;;;;;;;;;;17.17;80.05;101072.44;10384647;28;19921;-76
2023/04/21 09:09:17;;;;;;;;;;;;;;;17.96;75.56;101063.59;10389647;28;19948;-76
2023/04/21 09:14:18;;;;;;;;;;;;;;;19.13;79.24;101058.66;10362550;28;19922;-76
2023/04/21 09:19:19;;;;;;;;;;;;;;;19.54;73.01;101053.91;10386695;28;19929;-77
2023/04/21 09:24:19;;;;;;;;;;;;;;;18.02;72.92;101057.53;10376036;28;19928;-77
2023/04/21 09:29:26;;;;;;;;;;;;;;;16.93;80.59;101052.44;10393836;28;19943;-77
2023/04/21 09:34:26;;;;;;;;;;;;;;;17.65;79.21;101062.94;10384475;28;19925;-77
2023/04/21 09:39:30;;;;;;;;;;;;;;;19.99;71.07;101051.84;10365164;28;20735;-78
2023/04/21 09:44:30;;;;;;;;;;;;;;;20.95;66.24;101051.03;10374097;28;19921;-78
2023/04/21 09:49:32;;;;;;;;;;;;;;;20.91;64.32;101046.56;10403130;28;19917;-78
2023/04/21 09:54:33;;;;;;;;;;;;;;;19.07;69.41;101040.88;10397523;28;19974;-78
2023/04/21 09:59:37;;;;;;;;;;;;;;;18.34;72.40;101038.72;10401949;28;20438;-78
2023/04/21 10:04:37;;;;;;;;;;;;;;;18.68;73.82;101041.97;10389922;28;19932;-77
2023/04/21 10:09:39;;;;;;;;;;;;;;;18.68;71.26;101028.72;10360431;28;19925;-76
2023/04/21 10:14:39;;;;;;;;;;;;;;;19.05;70.79;101031.13;10380359;28;20437;-77
2023/04/21 10:19:50;;;;;;;;;;;;;;;17.37;79.94;101022.66;10403927;28;19913;-77
2023/04/21 10:24:50;;;;;;;;;;;;;;;19.01;73.26;101011.59;10385458;28;19925;-77
2023/04/21 10:29:50;;;;;;;;;;;;;;;20.29;69.43;101013.19;10399742;28;20320;-77
2023/04/21 10:34:51;;;;;;;;;;;;;;;18.46;75.50;101004.50;10383860;28;19921;-78
2023/04/21 10:39:52;;;;;;;;;;;;;;;18.33;77.28;100998.09;10394830;28;19920;-77
2023/04/21 10:44:53;;;;;;;;;;;;;;;17.93;72.11;100991.13;10401146;28;19928;-77
2023/04/21 10:49:57;;;;;;;;;;;;;;;19.11;74.88;100983.47;10386909;28;19922;-76
2023/04/21 10:54:57;;;;;;;;;;;;;;;19.63;69.27;100972.63;10364256;28;20019;-76
2023/04/21 10:59:57;;;;;;;;;;;;;;;19.62;66.60;100959.34;10397288;28;20011;-77
2023/04/21 11:04:58;;;;;;;;;;;;;;;19.40;70.05;100950.22;10391383;28;19983;-76
2023/04/21 11:09:59;;;;;;;;;;;;;;;20.98;60.16;100955.28;10395074;28;19994;-77
2023/04/21 11:15:01;;;;;;;;;;;;;;;19.54;68.45;100939.78;10353482;28;19921;-77
2023/04/21 11:20:03;;;;;;;;;;;;;;;19.95;67.39;100931.41;10365298;28;19917;-77
2023/04/21 11:25:03;;;;;;;;;;;;;;;20.34;62.62;100943.28;10377400;28;20372;-78
2023/04/21 11:30:04;;;;;;;;;;;;;;;20.06;64.63;100919.13;10399301;28;19917;-77
2023/04/21 11:35:05;;;;;;;;;;;;;;;19.85;63.36;100911.78;10397137;28;19921;-78
2023/04/21 11:40:07;;;;;;;;;;;;;;;20.17;64.27;100911.22;10399266;28;19970;-78
2023/04/21 11:45:08;;;;;;;;;;;;;;;20.92;59.47;100903.81;10394789;28;20293;-78
2023/04/21 11:50:09;;;;;;;;;;;;;;;19.40;61.68;100894.47;10397986;28;19920;-78
2023/04/21 11:55:10;;;;;;;;;;;;;;;20.25;60.79;100879.44;10396799;28;19978;-79
2023/04/21 12:00:12;;;;;;;;;;;;;;;20.43;60.83;100891.94;10397894;28;19986;-78
2023/04/21 12:05:12;;;;;;;;;;;;;;;20.27;59.22;100879.41;10393799;28;19925;-77
2023/04/21 12:10:13;;;;;;;;;;;;;;;20.66;58.76;100875.25;10400859;28;20277;-77
2023/04/21 12:15:18;;;;;;;;;;;;;;;21.49;61.10;100866.78;10395763;28;19925;-78
2023/04/21 12:20:19;;;;;;;;;;;;;;;21.24;62.27;100858.75;10404747;28;19917;-78
2023/04/21 12:25:19;;;;;;;;;;;;;;;22.13;59.89;100843.81;10400492;28;19921;-78
2023/04/21 12:30:20;;;;;;;;;;;;;;;22.13;56.58;100854.47;10405809;28;20273;-78
2023/04/21 12:35:21;;;;;;;;;;;;;;;20.91;58.50;100840.84;10397101;28;19921;-78
2023/04/21 12:40:21;;;;;;;;;;;;;;;18.45;60.65;100840.19;10403369;28;19984;-78
2023/04/21 12:45:22;;;;;;;;;;;;;;;19.74;61.47;100826.72;10403408;28;19928;-78
2023/04/21 12:50:22;;;;;;;;;;;;;;;19.75;58.70;100822.28;10404012;28;19924;-77
2023/04/21 12:55:22;;;;;;;;;;;;;;;19.76;58.83;100832.03;10403800;28;20008;-77
2023/04/21 13:00:23;;;;;;;;;;;;;;;20.66;61.84;100827.41;10403846;28;19943;-78
2023/04/21 13:05:23;;;;;;;;;;;;;;;21.93;56.87;100824.25;10404517;28;20008;-78
2023/04/21 13:10:24;;;;;;;;;;;;;;;21.07;60.99;100818.75;10402978;28;19917;-78
2023/04/21 13:15:24;;;;;;;;;;;;;;;18.91;64.89;100822.28;10403165;28;19925;-77
2023/04/21 13:20:25;;;;;;;;;;;;;;;18.51;71.42;100826.13;10375531;28;20006;-78
2023/04/21 13:25:25;;;;;;;;;;;;;;;20.85;64.82;100800.94;10384227;28;19921;-77
2023/04/21 13:30:25;;;;;;;;;;;;;;;21.32;57.07;100786.88;10397789;28;19921;-78
2023/04/21 13:35:26;;;;;;;;;;;;;;;19.15;59.68;100794.28;10391163;28;19960;-77
2023/04/21 13:40:26;;;;;;;;;;;;;;;19.90;59.00;100795.03;10361967;28;19979;-78
2023/04/21 13:45:27;;;;;;;;;;;;;;;20.88;58.50;100777.91;10375020;28;19986;-78
2023/04/21 13:50:27;;;;;;;;;;;;;;;20.52;63.73;100756.44;10364010;28;20502;-78
2023/04/21 13:55:27;;;;;;;;;;;;;;;19.06;66.89;100759.72;10370913;28;19921;-79
2023/04/21 14:00:27;;;;;;;;;;;;;;;18.04;71.60;100744.25;10368067;28;19927;-77
2023/04/21 14:05:28;;;;;;;;;;;;;;;17.96;71.06;100739.66;10368160;28;19925;-77
2023/04/21 14:10:29;;;;;;;;;;;;;;;17.32;71.94;100747.44;10365476;28;19928;-78
2023/04/21 14:15:29;;;;;;;;;;;;;;;19.28;70.08;100730.75;10362801;28;19921;-78
2023/04/21 14:20:29;;;;;;;;;;;;;;;20.13;65.70;100720.78;10367741;28;19966;-77
2023/04/21 14:25:30;;;;;;;;;;;;;;;18.20;70.10;100721.50;10378319;28;19924;-78
2023/04/21 14:30:32;;;;;;;;;;;;;;;18.47;68.76;100720.09;10359353;28;20452;-76
2023/04/21 14:35:35;;;;;;;;;;;;;;;18.11;69.60;100717.84;10358938;28;19932;-77
2023/04/21 14:40:35;;;;;;;;;;;;;;;19.64;62.20;100705.41;10357819;28;19929;-76
2023/04/21 14:45:36;;;;;;;;;;;;;;;20.63;57.17;100687.38;10350581;28;19972;-78
2023/04/21 14:50:36;;;;;;;;;;;;;;;20.93;55.20;100682.16;10335385;28;19925;-78
2023/04/21 14:55:37;;;;;;;;;;;;;;;21.10;57.34;100687.50;10356691;28;20004;-78
2023/04/21 15:00:38;;;;;;;;;;;;;;;21.03;52.86;100672.44;10396669;28;19925;-78
2023/04/21 15:05:38;;;;;;;;;;;;;;;19.75;52.29;100673.59;10360530;28;19922;-78
2023/04/21 15:10:39;;;;;;;;;;;;;;;19.86;57.74;100665.72;10366383;28;19921;-78
2023/04/21 15:15:39;;;;;;;;;;;;;;;19.80;59.79;100640.00;10358607;28;20254;-78
2023/04/21 15:20:41;;;;;;;;;;;;;;;18.51;63.21;100651.22;10378323;28;19944;-78
2023/04/21 15:25:41;;;;;;;;;;;;;;;17.55;66.11;100646.41;10371460;28;19922;-78
2023/04/21 15:30:42;;;;;;;;;;;;;;;16.98;68.27;100641.06;10369452;28;20384;-80
2023/04/21 15:35:42;;;;;;;;;;;;;;;16.77;69.97;100632.72;10370727;28;19960;-75
2023/04/21 15:40:43;;;;;;;;;;;;;;;16.55;71.02;100627.03;10388433;28;19931;-78
2023/04/21 15:45:43;;;;;;;;;;;;;;;16.27;74.87;100624.75;10380797;28;19929;-76
2023/04/21 15:50:44;;;;;;;;;;;;;;;16.28;75.60;100617.69;10371527;28;19921;-77
2023/04/21 15:55:44;;;;;;;;;;;;;;;16.36;75.58;100610.81;10403023;28;19920;-77
2023/04/21 16:00:45;;;;;;;;;;;;;;;16.20;81.02;100593.78;10399152;28;19925;-77
2023/04/21 16:05:45;;;;;;;;;;;;;;;15.88;84.43;100591.38;10365059;28;19921;-77
2023/04/21 16:10:54;;;;;;;;;;;;;;;15.78;87.36;100589.38;10343203;28;19936;-77
2023/04/21 16:15:55;;;;;;;;;;;;;;;15.67;92.77;100599.66;10352818;28;19960;-77
2023/04/21 16:20:56;;;;;;;;;;;;;;;15.49;96.87;100614.22;10384398;28;19925;-82
2023/04/21 16:26:00;;;;;;;;;;;;;;;15.22;100.00;100612.69;10391538;28;20008;-80
2023/04/21 16:31:02;;;;;;;;;;;;;;;14.99;100.00;100591.06;10381459;28;19948;-83
2023/04/21 16:36:03;;;;;;;;;;;;;;;14.63;100.00;100491.78;10360164;28;19921;-82
2023/04/21 16:41:05;;;;;;;;;;;;;;;13.94;100.00;100562.75;10335082;28;19928;-76
2023/04/21 16:46:08;;;;;;;;;;;;;;;13.78;100.00;100572.81;10371916;28;19926;-78
2023/04/21 16:51:12;;;;;;;;;;;;;;;13.56;100.00;100594.94;10379865;28;19964;-79
2023/04/21 16:56:15;;;;;;;;;;;;;;;13.12;100.00;100612.78;10369488;28;19929;-86
2023/04/21 17:01:16;;;;;;;;;;;;;;;12.78;100.00;100649.28;10381574;28;19975;-83
2023/04/21 17:06:19;;;;;;;;;;;;;;;12.52;100.00;100662.38;10354568;28;19921;-83
2023/04/21 17:11:20;;;;;;;;;;;;;;;11.88;100.00;100669.56;10362727;28;20013;-82
2023/04/21 17:16:20;;;;;;;;;;;;;;;11.15;100.00;100671.91;10370625;28;20357;-78
2023/04/21 17:21:20;;;;;;;;;;;;;;;10.76;100.00;100602.16;10372104;28;19949;-83
2023/04/21 17:26:21;;;;;;;;;;;;;;;10.45;100.00;100586.88;10363967;28;19921;-81
2023/04/21 17:31:21;;;;;;;;;;;;;;;9.79;100.00;100593.50;10371015;28;19925;-79
2023/04/21 17:36:22;;;;;;;;;;;;;;;9.44;100.00;100590.13;10373948;28;20443;-78
2023/04/21 17:41:26;;;;;;;;;;;;;;;9.25;100.00;100576.19;10374677;28;19925;-81
2023/04/21 17:46:26;;;;;;;;;;;;;;;9.18;100.00;100584.53;10386080;28;19918;-84
2023/04/21 17:51:27;;;;;;;;;;;;;;;9.09;100.00;100577.16;10382927;28;19921;-80
2023/04/21 17:56:27;;;;;;;;;;;;;;;9.09;100.00;100565.00;10404591;28;19924;-84
2023/04/21 18:01:27;;;;;;;;;;;;;;;9.04;100.00;100573.44;10401057;28;20373;-82
2023/04/21 18:06:28;;;;;;;;;;;;;;;9.02;100.00;100572.47;10361914;28;19921;-81
2023/04/21 18:11:28;;;;;;;;;;;;;;;9.01;100.00;100584.59;10361766;28;19918;-82
2023/04/21 18:16:28;;;;;;;;;;;;;;;9.06;100.00;100579.63;10388912;28;20389;-83
2023/04/21 18:21:29;;;;;;;;;;;;;;;9.13;100.00;100584.34;10366872;28;19921;-84
2023/04/21 18:26:30;;;;;;;;;;;;;;;9.23;100.00;100580.44;10337785;28;19917;-84
2023/04/21 18:31:32;;;;;;;;;;;;;;;9.32;100.00;100574.78;10375343;28;19944;-81
2023/04/21 18:36:32;;;;;;;;;;;;;;;9.31;100.00;100563.41;10380405;28;19922;-82
2023/04/21 18:41:32;;;;;;;;;;;;;;;9.26;100.00;100564.91;10365258;28;19921;-80
2023/04/21 18:46:33;;;;;;;;;;;;;;;9.15;100.00;100568.72;10374532;28;20012;-78
2023/04/21 18:51:33;;;;;;;;;;;;;;;9.14;100.00;100582.59;10359065;28;19928;-82
2023/04/21 18:56:33;;;;;;;;;;;;;;;9.12;100.00;100574.72;10371391;28;19932;-81
2023/04/21 19:01:34;;;;;;;;;;;;;;;9.20;100.00;100577.69;10359573;28;19922;-83
2023/04/21 19:06:34;;;;;;;;;;;;;;;9.30;100.00;100576.41;10366799;28;19921;-81
2023/04/21 19:11:34;;;;;;;;;;;;;;;9.29;100.00;100612.06;10364598;28;20285;-81
2023/04/21 19:16:35;;;;;;;;;;;;;;;9.46;100.00;100672.97;10379073;28;19928;-79
2023/04/21 19:21:35;;;;;;;;;;;;;;;9.36;100.00;100684.69;10372046;28;19925;-83
2023/04/21 19:26:35;;;;;;;;;;;;;;;9.22;100.00;100680.47;10345112;28;20401;-78
2023/04/21 19:31:36;;;;;;;;;;;;;;;9.18;100.00;100686.38;10327414;28;19961;-80
2023/04/21 19:36:37;;;;;;;;;;;;;;;9.20;100.00;100676.91;10356424;28;19971;-84
2023/04/21 19:41:37;;;;;;;;;;;;;;;9.22;100.00;100646.53;10367814;28;19921;-81
2023/04/21 19:46:41;;;;;;;;;;;;;;;9.03;100.00;100614.28;10396563;28;19917;-81
2023/04/21 19:51:41;;;;;;;;;;;;;;;8.92;100.00;100621.59;10360051;28;19922;-82
2023/04/21 19:56:43;;;;;;;;;;;;;;;8.81;100.00;100647.13;10397401;28;19921;-82
2023/04/21 20:01:43;;;;;;;;;;;;;;;8.75;100.00;100696.41;10386185;28;20392;-82
2023/04/21 20:06:44;;;;;;;;;;;;;;;8.68;100.00;100716.88;10369863;28;19928;-82
2023/04/21 20:11:44;;;;;;;;;;;;;;;8.66;100.00;100701.13;10363291;28;19928;-81
2023/04/21 20:16:45;;;;;;;;;;;;;;;8.68;100.00;100688.19;10364960;28;19922;-79
2023/04/21 20:21:45;;;;;;;;;;;;;;;8.79;100.00;100672.25;10338759;28;19921;-79
2023/04/21 20:26:45;;;;;;;;;;;;;;;8.78;100.00;100662.63;10315259;28;19921;-78
2023/04/21 20:31:46;;;;;;;;;;;;;;;8.81;100.00;100665.41;10324789;28;19926;-77
2023/04/21 20:36:46;;;;;;;;;;;;;;;8.80;100.00;100665.34;10315500;28;19948;-77
2023/04/21 20:41:47;;;;;;;;;;;;;;;8.73;100.00;100671.94;10306568;28;19930;-78
2023/04/21 20:46:47;;;;;;;;;;;;;;;8.60;100.00;100673.03;10334725;28;20030;-76
2023/04/21 20:51:54;;;;;;;;;;;;;;;8.42;100.00;100639.00;10305403;28;20351;-76
2023/04/21 20:56:54;;;;;;;;;;;;;;;8.31;100.00;100640.16;10304760;28;19983;-77
2023/04/21 21:01:55;;;;;;;;;;;;;;;8.11;100.00;100655.63;10335499;28;19959;-78
2023/04/21 21:06:55;;;;;;;;;;;;;;;7.84;100.00;100655.03;10361161;28;19921;-79
2023/04/21 21:11:55;;;;;;;;;;;;;;;7.54;100.00;100655.97;10362435;28;19922;-79
2023/04/21 21:16:56;;;;;;;;;;;;;;;7.27;100.00;100655.31;10373934;28;19920;-78
2023/04/21 21:21:56;;;;;;;;;;;;;;;7.05;100.00;100654.97;10399173;28;20372;-79
2023/04/21 21:26:57;;;;;;;;;;;;;;;6.81;100.00;100651.81;10388975;28;19929;-79
2023/04/21 21:31:57;;;;;;;;;;;;;;;6.52;100.00;100644.84;10387185;28;20365;-79
2023/04/21 21:36:57;;;;;;;;;;;;;;;6.32;100.00;100642.84;10390945;28;19924;-80
2023/04/21 21:41:57;;;;;;;;;;;;;;;6.10;100.00;100640.63;10398118;28;19974;-80
2023/04/21 21:46:58;;;;;;;;;;;;;;;6.08;100.00;100643.94;10386327;28;20012;-80
2023/04/21 21:51:58;;;;;;;;;;;;;;;6.10;100.00;100655.34;10397510;28;20274;-80
2023/04/21 21:56:59;;;;;;;;;;;;;;;6.18;100.00;100664.50;10381717;28;19932;-80
2023/04/21 22:01:59;;;;;;;;;;;;;;;6.17;100.00;100650.59;10401427;28;19921;-80
2023/04/21 22:06:59;;;;;;;;;;;;;;;6.08;100.00;100628.34;10384759;28;19928;-80
2023/04/21 22:12:00;;;;;;;;;;;;;;;5.89;100.00;100629.78;10401289;28;19919;-79
2023/04/21 22:17:01;;;;;;;;;;;;;;;5.78;100.00;100636.00;10384357;28;19929;-78
2023/04/21 22:22:02;;;;;;;;;;;;;;;5.62;100.00;100648.00;10387357;28;19929;-80
2023/04/21 22:27:02;;;;;;;;;;;;;;;5.52;100.00;100654.28;10387245;28;20364;-80
2023/04/21 22:32:03;;;;;;;;;;;;;;;5.44;100.00;100645.09;10401814;28;20010;-80
2023/04/21 22:37:04;;;;;;;;;;;;;;;5.29;100.00;100645.91;10378447;28;20293;-80
2023/04/21 22:42:04;;;;;;;;;;;;;;;5.23;100.00;100635.13;10390240;28;19947;-80
2023/04/21 22:47:05;;;;;;;;;;;;;;;5.10;100.00;100624.72;10380327;28;19921;-80
2023/04/21 22:52:05;;;;;;;;;;;;;;;5.00;100.00;100629.31;10397192;28;20007;-80
2023/04/21 22:57:06;;;;;;;;;;;;;;;4.84;100.00;100619.63;10375214;28;19926;-79
2023/04/21 23:02:06;;;;;;;;;;;;;;;4.83;100.00;100615.25;10397646;28;20356;-79
2023/04/21 23:07:07;;;;;;;;;;;;;;;4.74;100.00;100619.81;10368666;28;19929;-80
2023/04/21 23:12:07;;;;;;;;;;;;;;;4.52;100.00;100615.78;10387928;28;19920;-80
2023/04/21 23:17:07;;;;;;;;;;;;;;;4.43;100.00;100615.16;10378698;28;19921;-80
2023/04/21 23:22:08;;;;;;;;;;;;;;;4.43;100.00;100615.16;10395095;28;20308;-79
2023/04/21 23:27:08;;;;;;;;;;;;;;;4.41;100.00;100620.22;10387477;28;19959;-79
2023/04/21 23:32:09;;;;;;;;;;;;;;;4.34;100.00;100618.00;10398527;28;19925;-79
2023/04/21 23:37:09;;;;;;;;;;;;;;;4.33;100.00;100610.13;10376505;28;19925;-78
2023/04/21 23:42:10;;;;;;;;;;;;;;;4.23;100.00;100617.28;10392386;28;19928;-79
2023/04/21 23:47:10;;;;;;;;;;;;;;;4.00;100.00;100596.66;10360714;28;19952;-78
2023/04/21 23:52:10;;;;;;;;;;;;;;;3.84;100.00;100603.34;10360828;28;19929;-79
2023/04/21 23:57:11;;;;;;;;;;;;;;;3.79;100.00;100610.75;10360041;28;19921;-79
